Terminal Aerodrome Forecast
Issued by NWS

Home | Current Version | Previous Version | Text Only | Print | Product List | Glossary On
Versions: 1 2 3 4 5 6 7 8 9 10 11 12 13 14 15 16 17 18 19 20
699
FTUS43 KDVN 180526
TAFBRL
TAF
KBRL 180526Z 1806/1906 26007KT P6SM OVC010
     FM181000 23006KT 6SM BR OVC005
     FM181300 20008KT P6SM SKC=

USA.gov is the U.S. government's official web portal to all federal, state and local government web resources and services.